Time;durP1;ratioP1;P1;durP2;ratioP2;P2;SDS_P1;SDS_P2;PMS_P1;PMS_P2;Temp;Humidity;BMP_temperature;BMP_pressure;BME280_temperature;BME280_humidity;BME280_pressure;Samples;Min_cycle;Max_cycle;Signal;HPM_P1;HPM_P2
2021/08/05 00:02:01;;;;;;;9.88;4.95;;;;;;;;;;4899889;29;20045;-63
2021/08/05 00:04:47;;;;;;;5.90;3.65;;;;;;;;;;4899580;29;20048;-62
2021/08/05 00:07:32;;;;;;;6.25;4.15;;;;;;;;;;4898375;29;20633;-63
2021/08/05 00:10:18;;;;;;;6.90;4.32;;;;;;;;;;4899110;29;20131;-63
2021/08/05 00:13:03;;;;;;;6.78;4.05;;;;;;;;;;4899531;29;20052;-63
2021/08/05 00:15:49;;;;;;;6.88;4.00;;;;;;;;;;4898666;29;20048;-63
2021/08/05 00:18:34;;;;;;;7.32;4.45;;;;;;;;;;4899630;29;20049;-63
2021/08/05 00:21:19;;;;;;;5.32;4.13;;;;;;;;;;4899533;29;20092;-62
2021/08/05 00:24:05;;;;;;;6.97;4.22;;;;;;;;;;4897819;29;20048;-62
2021/08/05 00:26:50;;;;;;;7.20;4.50;;;;;;;;;;4898728;29;20072;-63
2021/08/05 00:29:38;;;;;;;7.20;4.82;;;;;;;;;;4899534;29;20099;-63
2021/08/05 00:32:24;;;;;;;5.65;4.65;;;;;;;;;;4899144;29;20052;-63
2021/08/05 00:35:09;;;;;;;6.68;4.53;;;;;;;;;;4897735;29;20482;-62
2021/08/05 00:37:54;;;;;;;6.25;4.82;;;;;;;;;;4911011;29;20049;-63
2021/08/05 00:40:41;;;;;;;5.82;4.72;;;;;;;;;;4911423;29;20060;-63
2021/08/05 00:43:26;;;;;;;5.85;4.88;;;;;;;;;;4898820;29;20150;-62
2021/08/05 00:46:12;;;;;;;5.40;4.90;;;;;;;;;;4910490;29;20645;-63
2021/08/05 00:48:57;;;;;;;5.82;4.90;;;;;;;;;;4911378;29;20693;-62
2021/08/05 00:51:42;;;;;;;8.55;5.13;;;;;;;;;;4897859;29;20064;-62
2021/08/05 00:54:28;;;;;;;6.68;4.50;;;;;;;;;;4897002;29;20080;-62
2021/08/05 00:57:13;;;;;;;6.32;5.40;;;;;;;;;;4893526;29;20049;-63
2021/08/05 00:59:59;;;;;;;6.97;5.13;;;;;;;;;;4892448;29;20056;-63
2021/08/05 01:02:45;;;;;;;6.50;4.90;;;;;;;;;;4879133;29;20088;-62
2021/08/05 01:05:33;;;;;;;8.02;5.35;;;;;;;;;;4879436;29;20053;-62
2021/08/05 01:08:19;;;;;;;6.80;5.57;;;;;;;;;;4897270;29;20450;-62
2021/08/05 01:11:10;;;;;;;6.28;5.28;;;;;;;;;;4897524;29;20072;-63
2021/08/05 01:13:56;;;;;;;7.05;5.25;;;;;;;;;;4897209;29;20049;-63
2021/08/05 01:16:42;;;;;;;7.10;5.55;;;;;;;;;;4909578;29;20052;-62
2021/08/05 01:19:44;;;;;;;6.05;5.45;;;;;;;;;;4883373;29;20049;-62
2021/08/05 01:22:48;;;;;;;6.72;5.15;;;;;;;;;;4884191;29;20068;-63
2021/08/05 01:25:49;;;;;;;6.55;5.20;;;;;;;;;;4891496;29;20128;-63
2021/08/05 01:28:35;;;;;;;6.47;5.18;;;;;;;;;;4865503;29;20078;-63
2021/08/05 01:31:22;;;;;;;7.50;5.88;;;;;;;;;;4879555;29;20054;-62
2021/08/05 01:34:07;;;;;;;5.88;5.38;;;;;;;;;;4878336;29;20049;-63
2021/08/05 01:36:53;;;;;;;6.43;5.82;;;;;;;;;;4865525;29;20060;-63
2021/08/05 01:39:38;;;;;;;6.85;5.78;;;;;;;;;;4878969;29;20124;-62
2021/08/05 01:42:23;;;;;;;8.60;5.07;;;;;;;;;;4895704;29;20055;-63
2021/08/05 01:45:09;;;;;;;7.10;6.10;;;;;;;;;;4896787;29;20414;-62
2021/08/05 01:47:55;;;;;;;7.47;5.53;;;;;;;;;;4896760;29;20513;-63
2021/08/05 01:50:41;;;;;;;6.10;5.45;;;;;;;;;;4883820;29;20055;-61
2021/08/05 01:53:26;;;;;;;8.10;5.88;;;;;;;;;;4896558;29;20695;-63
2021/08/05 01:56:12;;;;;;;8.00;5.88;;;;;;;;;;4895591;29;20425;-63
2021/08/05 01:58:59;;;;;;;6.63;4.57;;;;;;;;;;4910091;29;20134;-63
2021/08/05 02:01:45;;;;;;;7.10;4.72;;;;;;;;;;4896647;29;20057;-62
2021/08/05 02:04:38;;;;;;;8.10;5.38;;;;;;;;;;4897145;29;20056;-63
2021/08/05 02:07:31;;;;;;;7.72;5.47;;;;;;;;;;4897720;29;20048;-63
2021/08/05 02:10:24;;;;;;;7.15;6.05;;;;;;;;;;4895779;29;20053;-62
2021/08/05 02:13:11;;;;;;;;;;;;;;;;;;4909880;29;20058;-63
2021/08/05 02:15:57;;;;;;;8.32;5.45;;;;;;;;;;4896334;29;19923;-63
2021/08/05 02:18:45;;;;;;;7.05;5.93;;;;;;;;;;4909795;29;20059;-63
2021/08/05 02:21:31;;;;;;;7.65;6.32;;;;;;;;;;4909678;29;20135;-63
2021/08/05 02:24:17;;;;;;;8.75;7.18;;;;;;;;;;4908772;29;20208;-63
2021/08/05 02:27:02;;;;;;;8.32;7.30;;;;;;;;;;4896382;29;20420;-63
2021/08/05 02:29:48;;;;;;;9.65;7.45;;;;;;;;;;4896234;29;20067;-63
2021/08/05 02:32:33;;;;;;;9.00;8.05;;;;;;;;;;4896246;29;20074;-61
2021/08/05 02:35:18;;;;;;;11.57;7.93;;;;;;;;;;4909230;29;20474;-63
2021/08/05 02:38:04;;;;;;;8.73;7.82;;;;;;;;;;4894986;29;20048;-63
2021/08/05 02:40:50;;;;;;;11.38;8.27;;;;;;;;;;4893469;29;20051;-62
2021/08/05 02:43:36;;;;;;;10.85;8.32;;;;;;;;;;4892561;29;20052;-63
2021/08/05 02:46:21;;;;;;;10.05;8.20;;;;;;;;;;4882197;29;20049;-62
2021/08/05 02:49:07;;;;;;;9.82;8.82;;;;;;;;;;4894833;29;20041;-63
2021/08/05 02:51:52;;;;;;;11.25;9.00;;;;;;;;;;4895646;29;20175;-62
2021/08/05 02:54:37;;;;;;;12.05;9.38;;;;;;;;;;4884723;29;20727;-62
2021/08/05 02:57:23;;;;;;;13.50;9.07;;;;;;;;;;4876519;29;20053;-62
2021/08/05 03:00:08;;;;;;;11.70;9.32;;;;;;;;;;4878182;29;20108;-63
2021/08/05 03:02:53;;;;;;;10.63;9.55;;;;;;;;;;4878100;29;20053;-62
2021/08/05 03:05:39;;;;;;;10.55;8.60;;;;;;;;;;4892100;29;20052;-62
2021/08/05 03:08:25;;;;;;;10.70;9.30;;;;;;;;;;4895439;29;20044;-63
2021/08/05 03:11:10;;;;;;;12.50;8.90;;;;;;;;;;4896482;29;20044;-62
2021/08/05 03:13:56;;;;;;;11.63;9.73;;;;;;;;;;4896544;29;20170;-62
2021/08/05 03:16:41;;;;;;;11.88;9.10;;;;;;;;;;4896090;29;20053;-62
2021/08/05 03:19:27;;;;;;;12.90;9.93;;;;;;;;;;4900122;29;20409;-62
2021/08/05 03:22:12;;;;;;;15.07;11.18;;;;;;;;;;4900643;29;20421;-64
2021/08/05 03:24:58;;;;;;;10.75;8.90;;;;;;;;;;4900027;29;20052;-62
2021/08/05 03:27:43;;;;;;;14.80;10.20;;;;;;;;;;4881586;29;20541;-62
2021/08/05 03:30:29;;;;;;;15.20;11.15;;;;;;;;;;4881316;29;20049;-63
2021/08/05 03:33:14;;;;;;;12.82;9.25;;;;;;;;;;4881521;29;20049;-62
2021/08/05 03:36:00;;;;;;;11.10;9.95;;;;;;;;;;4884035;29;20123;-62
2021/08/05 03:38:45;;;;;;;10.45;9.38;;;;;;;;;;4900362;29;20055;-63
2021/08/05 03:41:31;;;;;;;14.45;10.88;;;;;;;;;;4900158;29;20044;-63
2021/08/05 03:44:18;;;;;;;14.02;11.48;;;;;;;;;;4899826;29;20058;-63
2021/08/05 03:47:03;;;;;;;14.90;11.27;;;;;;;;;;4899159;29;20072;-63
2021/08/05 03:49:49;;;;;;;13.18;11.82;;;;;;;;;;4900016;29;20068;-63
2021/08/05 03:52:34;;;;;;;13.43;12.02;;;;;;;;;;4899977;29;20049;-63
2021/08/05 03:55:19;;;;;;;16.40;13.88;;;;;;;;;;4899740;29;20208;-63
2021/08/05 03:58:09;;;;;;;16.02;13.35;;;;;;;;;;4898058;29;20063;-63
2021/08/05 04:00:55;;;;;;;17.35;14.13;;;;;;;;;;4899401;29;20519;-63
2021/08/05 04:03:40;;;;;;;18.10;14.02;;;;;;;;;;4899762;29;20056;-63
2021/08/05 04:06:25;;;;;;;14.60;13.10;;;;;;;;;;4899764;29;20064;-63
2021/08/05 04:09:12;;;;;;;16.15;13.85;;;;;;;;;;4899573;29;20087;-63
2021/08/05 04:11:57;;;;;;;17.25;13.00;;;;;;;;;;4899453;29;20052;-63
2021/08/05 04:14:42;;;;;;;17.02;13.55;;;;;;;;;;4899305;29;20055;-63
2021/08/05 04:17:27;;;;;;;18.05;13.30;;;;;;;;;;4913088;29;20431;-63
2021/08/05 04:20:13;;;;;;;16.35;13.65;;;;;;;;;;4899526;29;20053;-63
2021/08/05 04:22:58;;;;;;;13.88;12.40;;;;;;;;;;4899396;29;20049;-63
2021/08/05 04:25:45;;;;;;;15.25;13.13;;;;;;;;;;4899113;29;20064;-63
2021/08/05 04:28:32;;;;;;;17.85;13.57;;;;;;;;;;4896885;29;20057;-63
2021/08/05 04:31:17;;;;;;;15.48;13.15;;;;;;;;;;4898735;29;20063;-63
2021/08/05 04:34:02;;;;;;;13.98;12.45;;;;;;;;;;4897984;29;20051;-62
2021/08/05 04:36:47;;;;;;;14.85;13.35;;;;;;;;;;4899041;29;20051;-63
2021/08/05 04:39:33;;;;;;;15.43;13.65;;;;;;;;;;4898189;29;20071;-63
2021/08/05 04:42:18;;;;;;;14.93;13.27;;;;;;;;;;4899137;29;20041;-62
2021/08/05 04:45:03;;;;;;;17.38;14.60;;;;;;;;;;4898766;29;20520;-63
2021/08/05 04:47:52;;;;;;;13.32;12.02;;;;;;;;;;4899129;29;20169;-63
2021/08/05 04:50:39;;;;;;;16.70;13.05;;;;;;;;;;4898642;29;20100;-62
2021/08/05 04:53:24;;;;;;;15.02;13.00;;;;;;;;;;4898823;29;20056;-63
2021/08/05 04:56:09;;;;;;;15.35;11.68;;;;;;;;;;4897649;29;20052;-63
2021/08/05 04:58:55;;;;;;;13.70;11.90;;;;;;;;;;4894132;29;20079;-63
2021/08/05 05:01:40;;;;;;;13.77;11.23;;;;;;;;;;4896082;29;20462;-63
2021/08/05 05:04:25;;;;;;;13.15;11.55;;;;;;;;;;4895971;29;20057;-63
2021/08/05 05:07:10;;;;;;;13.35;11.95;;;;;;;;;;4896529;29;20053;-65
2021/08/05 05:09:56;;;;;;;11.65;10.50;;;;;;;;;;4896115;29;20041;-64
2021/08/05 05:12:42;;;;;;;13.27;11.75;;;;;;;;;;4897053;29;20049;-64
2021/08/05 05:15:29;;;;;;;13.05;11.73;;;;;;;;;;4895393;29;20055;-64
2021/08/05 05:18:15;;;;;;;12.70;10.70;;;;;;;;;;4898274;29;20421;-63
2021/08/05 05:21:02;;;;;;;13.10;11.00;;;;;;;;;;4898395;29;20112;-63
2021/08/05 05:23:47;;;;;;;14.82;13.30;;;;;;;;;;4898008;29;20053;-63
2021/08/05 05:26:33;;;;;;;14.73;11.63;;;;;;;;;;4897388;29;20053;-63
2021/08/05 05:29:18;;;;;;;12.93;11.63;;;;;;;;;;4898221;29;20184;-64
2021/08/05 05:32:04;;;;;;;14.57;12.88;;;;;;;;;;4898115;29;20520;-63
2021/08/05 05:34:49;;;;;;;13.25;11.90;;;;;;;;;;4896689;29;20151;-65
2021/08/05 05:37:34;;;;;;;14.35;12.85;;;;;;;;;;4897454;29;20055;-64
2021/08/05 05:40:20;;;;;;;14.30;12.88;;;;;;;;;;4897597;29;20092;-63
2021/08/05 05:43:05;;;;;;;18.27;14.55;;;;;;;;;;4897909;29;20063;-65
2021/08/05 05:45:56;;;;;;;16.85;14.93;;;;;;;;;;4896904;29;20072;-63
2021/08/05 05:48:43;;;;;;;17.08;14.40;;;;;;;;;;4895929;29;20169;-65
2021/08/05 05:51:28;;;;;;;15.82;14.05;;;;;;;;;;4897720;29;20052;-63
2021/08/05 05:54:14;;;;;;;17.08;14.15;;;;;;;;;;4897603;29;20048;-65
2021/08/05 05:56:59;;;;;;;17.33;15.00;;;;;;;;;;4895888;29;20036;-63
2021/08/05 05:59:44;;;;;;;16.90;14.50;;;;;;;;;;4897577;29;20067;-64
2021/08/05 06:02:30;;;;;;;17.88;14.55;;;;;;;;;;4877294;29;20068;-64
2021/08/05 06:05:15;;;;;;;24.08;21.48;;;;;;;;;;4875815;29;20053;-63
2021/08/05 06:08:01;;;;;;;28.58;25.08;;;;;;;;;;4876847;29;20406;-67
2021/08/05 06:10:47;;;;;;;24.27;20.38;;;;;;;;;;4876677;29;20447;-63
2021/08/05 06:13:32;;;;;;;21.17;18.88;;;;;;;;;;4894732;29;20414;-65
2021/08/05 06:16:17;;;;;;;17.13;15.18;;;;;;;;;;4894602;29;20057;-63
2021/08/05 06:19:02;;;;;;;19.60;16.38;;;;;;;;;;4895083;29;20057;-67
2021/08/05 06:21:48;;;;;;;15.52;13.95;;;;;;;;;;4894348;29;20051;-63
2021/08/05 06:24:34;;;;;;;15.93;14.43;;;;;;;;;;4893928;29;20124;-65
2021/08/05 06:27:22;;;;;;;14.15;12.80;;;;;;;;;;4894617;29;20195;-63
2021/08/05 06:30:09;;;;;;;15.35;13.70;;;;;;;;;;4894270;29;20067;-66
2021/08/05 06:32:54;;;;;;;15.82;14.23;;;;;;;;;;4883617;29;20174;-64
2021/08/05 06:35:40;;;;;;;15.23;13.57;;;;;;;;;;4871174;29;20425;-64
2021/08/05 06:38:25;;;;;;;21.55;14.00;;;;;;;;;;4910683;29;20056;-65
2021/08/05 06:41:10;;;;;;;13.73;12.43;;;;;;;;;;4911435;29;20051;-63
2021/08/05 06:43:56;;;;;;;13.73;12.27;;;;;;;;;;4905803;29;20071;-63
2021/08/05 06:46:41;;;;;;;13.57;12.18;;;;;;;;;;4910632;29;20048;-63
2021/08/05 06:49:27;;;;;;;12.98;11.77;;;;;;;;;;4913406;29;20068;-64
2021/08/05 06:52:12;;;;;;;11.32;10.23;;;;;;;;;;4893851;29;20405;-63
2021/08/05 06:54:57;;;;;;;10.38;9.07;;;;;;;;;;4874205;29;20052;-63
2021/08/05 06:57:43;;;;;;;10.40;9.30;;;;;;;;;;4878943;29;20053;-64
2021/08/05 07:00:28;;;;;;;9.52;8.50;;;;;;;;;;4892450;29;20061;-65
2021/08/05 07:03:13;;;;;;;9.32;8.52;;;;;;;;;;4893984;29;20051;-64
2021/08/05 07:05:59;;;;;;;8.55;7.72;;;;;;;;;;4894694;29;20059;-65
2021/08/05 07:08:44;;;;;;;7.32;6.63;;;;;;;;;;4894895;29;20172;-63
2021/08/05 07:11:30;;;;;;;9.10;8.25;;;;;;;;;;4893372;29;20056;-64
2021/08/05 07:14:15;;;;;;;7.88;7.07;;;;;;;;;;4893653;29;20473;-65
2021/08/05 07:17:01;;;;;;;8.45;7.45;;;;;;;;;;4894926;29;20063;-62
2021/08/05 07:19:46;;;;;;;8.52;7.70;;;;;;;;;;4894682;29;20492;-64
2021/08/05 07:22:31;;;;;;;7.50;6.88;;;;;;;;;;4889123;29;20606;-64
2021/08/05 07:25:16;;;;;;;8.80;8.00;;;;;;;;;;4891140;29;20452;-64
2021/08/05 07:28:02;;;;;;;7.68;6.97;;;;;;;;;;4893880;29;20544;-62
2021/08/05 07:30:47;;;;;;;6.93;6.30;;;;;;;;;;4893286;29;20045;-65
2021/08/05 07:33:32;;;;;;;5.43;4.93;;;;;;;;;;4893071;29;20573;-65
2021/08/05 07:36:18;;;;;;;5.95;5.13;;;;;;;;;;4888144;29;20546;-63
2021/08/05 07:39:03;;;;;;;7.20;5.65;;;;;;;;;;4892655;29;20421;-66
2021/08/05 07:41:48;;;;;;;5.90;5.40;;;;;;;;;;4890305;29;20072;-65
2021/08/05 07:44:34;;;;;;;5.70;5.18;;;;;;;;;;4874789;29;20053;-64
2021/08/05 07:47:19;;;;;;;25.75;7.68;;;;;;;;;;4875115;29;20143;-64
2021/08/05 07:50:05;;;;;;;7.20;6.50;;;;;;;;;;4876022;29;20061;-65
2021/08/05 07:52:50;;;;;;;7.68;6.97;;;;;;;;;;4893430;29;20052;-64
2021/08/05 07:55:36;;;;;;;8.35;6.72;;;;;;;;;;4893657;29;20538;-64
2021/08/05 07:58:21;;;;;;;6.13;5.53;;;;;;;;;;4893658;29;20059;-64
2021/08/05 08:01:06;;;;;;;10.13;5.93;;;;;;;;;;4893194;29;20067;-64
2021/08/05 08:03:51;;;;;;;5.88;5.28;;;;;;;;;;4895254;29;20067;-65
2021/08/05 08:06:36;;;;;;;6.75;5.90;;;;;;;;;;4895954;29;20525;-66
2021/08/05 08:09:22;;;;;;;6.55;5.95;;;;;;;;;;4896390;29;20051;-65
2021/08/05 08:12:07;;;;;;;6.43;5.82;;;;;;;;;;4940647;23;20366;-65
2021/08/05 08:14:54;;;;;;;5.45;4.95;;;;;;;;;;4934408;29;20554;-64
2021/08/05 08:17:40;;;;;;;5.10;4.60;;;;;;;;;;4935992;28;20079;-64
2021/08/05 08:20:25;;;;;;;4.95;4.55;;;;;;;;;;4925039;29;20102;-64
2021/08/05 08:23:10;;;;;;;4.93;4.05;;;;;;;;;;4927429;29;20051;-64
2021/08/05 08:25:55;;;;;;;6.65;5.47;;;;;;;;;;4928156;29;20055;-64
2021/08/05 08:28:40;;;;;;;3.55;3.25;;;;;;;;;;4921546;29;20130;-64
2021/08/05 08:31:26;;;;;;;3.38;2.90;;;;;;;;;;4922282;28;20055;-64
2021/08/05 08:34:11;;;;;;;4.32;2.92;;;;;;;;;;4921900;29;20060;-65
2021/08/05 08:36:56;;;;;;;4.93;3.58;;;;;;;;;;4921957;29;20062;-64
2021/08/05 08:39:41;;;;;;;6.38;4.20;;;;;;;;;;4921691;29;20099;-64
2021/08/05 08:42:27;;;;;;;4.85;2.95;;;;;;;;;;4923709;28;20189;-64
2021/08/05 08:45:13;;;;;;;2.95;2.60;;;;;;;;;;4914563;29;20063;-65
2021/08/05 08:47:59;;;;;;;2.78;2.50;;;;;;;;;;4915890;29;20151;-64
2021/08/05 08:50:44;;;;;;;3.30;2.55;;;;;;;;;;4913945;29;20055;-64
2021/08/05 08:53:33;;;;;;;3.55;2.22;;;;;;;;;;4914209;29;20567;-64
2021/08/05 08:56:18;;;;;;;3.22;2.67;;;;;;;;;;4913938;29;20044;-64
2021/08/05 08:59:03;;;;;;;2.45;2.25;;;;;;;;;;4915528;29;20104;-64
2021/08/05 09:01:48;;;;;;;3.13;2.08;;;;;;;;;;4914196;29;20203;-65
2021/08/05 09:04:34;;;;;;;1.42;1.33;;;;;;;;;;4912411;29;20075;-64
2021/08/05 09:07:20;;;;;;;13.45;3.15;;;;;;;;;;4913860;29;20135;-64
2021/08/05 09:10:05;;;;;;;2.22;1.80;;;;;;;;;;4913936;29;20047;-64
2021/08/05 09:12:55;;;;;;;2.33;2.13;;;;;;;;;;4928305;28;20051;-64
2021/08/05 09:15:47;;;;;;;2.70;2.50;;;;;;;;;;4923817;29;20109;-64
2021/08/05 09:18:36;;;;;;;3.65;2.38;;;;;;;;;;4914214;29;20533;-64
2021/08/05 09:21:21;;;;;;;2.50;2.30;;;;;;;;;;4915362;29;20040;-64
2021/08/05 09:24:09;;;;;;;2.97;1.88;;;;;;;;;;4914078;29;20058;-64
2021/08/05 09:26:57;;;;;;;2.53;2.30;;;;;;;;;;4909249;29;20068;-64
2021/08/05 09:29:44;;;;;;;2.13;1.95;;;;;;;;;;4914021;29;20048;-64
2021/08/05 09:32:30;;;;;;;2.10;1.90;;;;;;;;;;4913759;29;20067;-64
2021/08/05 09:35:15;;;;;;;3.28;1.70;;;;;;;;;;4914565;29;20048;-64
2021/08/05 09:38:22;;;;;;;2.72;2.53;;;;;;;;;;4912386;29;20063;-64
2021/08/05 09:41:09;;;;;;;4.95;3.17;;;;;;;;;;4914867;29;20119;-64
2021/08/05 09:44:01;;;;;;;5.80;3.20;;;;;;;;;;4914471;29;20071;-64
2021/08/05 09:46:46;;;;;;;4.85;3.17;;;;;;;;;;4906981;29;20493;-65
2021/08/05 09:49:34;;;;;;;6.57;3.35;;;;;;;;;;4895574;29;20055;-65
2021/08/05 09:52:32;;;;;;;3.47;3.00;;;;;;;;;;4914586;29;20073;-66
2021/08/05 09:55:23;;;;;;;4.07;2.40;;;;;;;;;;4914289;29;20116;-66
2021/08/05 09:58:08;;;;;;;5.50;3.60;;;;;;;;;;4913013;29;20059;-67
2021/08/05 10:00:53;;;;;;;6.22;2.92;;;;;;;;;;4913378;29;20099;-66
2021/08/05 10:03:39;;;;;;;4.68;3.50;;;;;;;;;;4912935;29;20055;-66
2021/08/05 10:06:24;;;;;;;3.85;3.55;;;;;;;;;;4913734;29;20054;-66
2021/08/05 10:09:19;;;;;;;3.75;3.05;;;;;;;;;;4913912;29;20512;-65
2021/08/05 10:12:10;;;;;;;3.30;3.05;;;;;;;;;;4920098;29;20183;-66
2021/08/05 10:15:06;;;;;;;14.07;4.57;;;;;;;;;;4932880;28;20504;-66
2021/08/05 10:17:52;;;;;;;3.65;2.80;;;;;;;;;;4933181;29;20054;-66
2021/08/05 10:20:37;;;;;;;3.28;2.97;;;;;;;;;;4931367;29;20047;-67
2021/08/05 10:23:23;;;;;;;4.00;3.00;;;;;;;;;;4892549;29;20133;-65
2021/08/05 10:26:09;;;;;;;3.65;3.15;;;;;;;;;;4895422;29;20052;-66
2021/08/05 10:28:54;;;;;;;3.78;3.03;;;;;;;;;;4894194;29;20082;-66
2021/08/05 10:31:40;;;;;;;3.38;3.08;;;;;;;;;;4898854;29;20055;-66
2021/08/05 10:34:26;;;;;;;2.85;2.65;;;;;;;;;;4910774;29;20055;-66
2021/08/05 10:37:12;;;;;;;3.60;2.38;;;;;;;;;;4913501;29;20493;-66
2021/08/05 10:39:57;;;;;;;4.72;2.83;;;;;;;;;;4913901;29;20056;-65
2021/08/05 10:42:43;;;;;;;3.22;2.80;;;;;;;;;;4912828;29;20115;-66
2021/08/05 10:45:28;;;;;;;2.88;2.47;;;;;;;;;;4910860;29;20416;-65
2021/08/05 10:48:13;;;;;;;3.67;3.03;;;;;;;;;;4913401;29;20176;-65
2021/08/05 10:50:59;;;;;;;2.60;2.40;;;;;;;;;;4906854;29;20044;-66
2021/08/05 10:53:45;;;;;;;3.70;3.25;;;;;;;;;;4919817;28;20811;-66
2021/08/05 10:56:31;;;;;;;3.55;2.88;;;;;;;;;;4922462;29;20122;-66
2021/08/05 10:59:16;;;;;;;2.60;2.40;;;;;;;;;;4919462;28;20130;-66
2021/08/05 11:02:01;;;;;;;3.30;2.50;;;;;;;;;;4919851;29;20593;-66
2021/08/05 11:04:47;;;;;;;3.22;2.75;;;;;;;;;;4925153;29;20048;-66
2021/08/05 11:07:33;;;;;;;3.40;3.10;;;;;;;;;;4921882;29;20050;-66
2021/08/05 11:10:19;;;;;;;3.78;3.08;;;;;;;;;;4919853;28;20051;-66
2021/08/05 11:13:10;;;;;;;4.70;3.38;;;;;;;;;;4922414;29;20099;-67
2021/08/05 11:15:56;;;;;;;;;;;;;;;;;;4919630;28;20043;-66
2021/08/05 11:18:41;;;;;;;4.38;3.97;;;;;;;;;;4919736;29;20010;-66
2021/08/05 11:21:27;;;;;;;3.40;3.10;;;;;;;;;;4919844;29;20063;-66
2021/08/05 11:24:13;;;;;;;7.03;4.20;;;;;;;;;;4922091;29;20123;-66
2021/08/05 11:27:11;;;;;;;4.40;4.00;;;;;;;;;;4919821;29;20168;-67
2021/08/05 11:29:57;;;;;;;4.57;3.80;;;;;;;;;;4932616;28;20054;-66
2021/08/05 11:32:42;;;;;;;4.00;3.70;;;;;;;;;;4920451;29;20075;-66
2021/08/05 11:35:27;;;;;;;4.60;4.20;;;;;;;;;;4912064;29;20147;-67
2021/08/05 11:38:13;;;;;;;4.20;3.90;;;;;;;;;;4914558;29;20070;-67
2021/08/05 11:40:59;;;;;;;4.80;4.40;;;;;;;;;;4916699;29;20165;-66
2021/08/05 11:43:44;;;;;;;4.05;3.65;;;;;;;;;;4911176;29;20048;-66
2021/08/05 11:46:33;;;;;;;6.70;3.47;;;;;;;;;;4914632;29;20067;-66
2021/08/05 11:49:39;;;;;;;6.53;3.83;;;;;;;;;;4916061;29;20054;-66
2021/08/05 11:52:24;;;;;;;3.25;2.95;;;;;;;;;;4914596;29;20416;-65
2021/08/05 11:55:16;;;;;;;11.32;4.97;;;;;;;;;;4916135;29;20067;-66
2021/08/05 11:58:02;;;;;;;3.65;3.35;;;;;;;;;;4916861;29;20206;-67
2021/08/05 12:00:47;;;;;;;6.28;2.53;;;;;;;;;;4916562;29;20063;-67
2021/08/05 12:03:33;;;;;;;4.25;2.42;;;;;;;;;;4914460;29;20123;-66
2021/08/05 12:06:24;;;;;;;5.05;2.67;;;;;;;;;;4914768;29;20079;-67
2021/08/05 12:09:16;;;;;;;2.78;2.53;;;;;;;;;;4916581;29;20052;-67
2021/08/05 12:12:01;;;;;;;3.00;2.50;;;;;;;;;;4915448;29;20055;-67
2021/08/05 12:14:47;;;;;;;3.97;2.67;;;;;;;;;;4914169;29;20043;-67
2021/08/05 12:17:37;;;;;;;3.30;2.88;;;;;;;;;;4909719;29;20883;-66
2021/08/05 12:20:31;;;;;;;3.80;3.40;;;;;;;;;;4937198;29;20496;-67
2021/08/05 12:23:29;;;;;;;2.75;2.25;;;;;;;;;;4937229;29;20107;-67
2021/08/05 12:26:21;;;;;;;2.47;1.92;;;;;;;;;;4937187;29;20047;-67
2021/08/05 12:29:09;;;;;;;4.38;2.47;;;;;;;;;;4937345;29;20389;-67
2021/08/05 12:31:54;;;;;;;2.17;1.75;;;;;;;;;;4898301;29;20133;-67
2021/08/05 12:34:47;;;;;;;1.60;1.50;;;;;;;;;;4898980;29;20711;-66
2021/08/05 12:37:32;;;;;;;2.00;1.80;;;;;;;;;;4899009;29;20047;-66
2021/08/05 12:40:17;;;;;;;2.03;1.88;;;;;;;;;;4899293;29;20067;-66
2021/08/05 12:43:03;;;;;;;1.90;1.80;;;;;;;;;;4898206;29;20185;-66
2021/08/05 12:45:48;;;;;;;2.40;2.00;;;;;;;;;;4910644;29;20060;-66
2021/08/05 12:48:33;;;;;;;5.00;2.05;;;;;;;;;;4916284;29;20059;-66
2021/08/05 12:51:19;;;;;;;2.38;1.90;;;;;;;;;;4916587;29;20051;-66
2021/08/05 12:54:20;;;;;;;3.17;1.80;;;;;;;;;;4916270;29;20059;-66
2021/08/05 12:57:12;;;;;;;1.98;1.85;;;;;;;;;;4917407;29;20051;-66
2021/08/05 12:59:58;;;;;;;2.33;2.00;;;;;;;;;;4915695;29;20553;-66
2021/08/05 13:02:55;;;;;;;2.15;1.92;;;;;;;;;;4916612;29;20059;-66
2021/08/05 13:05:56;;;;;;;2.10;1.50;;;;;;;;;;4917319;29;20044;-66
2021/08/05 13:08:42;;;;;;;2.75;1.70;;;;;;;;;;4917545;29;20063;-66
2021/08/05 13:11:34;;;;;;;2.60;2.40;;;;;;;;;;4917283;29;20076;-67
2021/08/05 13:14:36;;;;;;;1.92;1.70;;;;;;;;;;4916008;29;20051;-66
2021/08/05 13:17:21;;;;;;;2.97;1.90;;;;;;;;;;4915400;29;20056;-66
2021/08/05 13:20:10;;;;;;;2.22;1.60;;;;;;;;;;4916875;29;20044;-66
2021/08/05 13:22:57;;;;;;;3.47;1.35;;;;;;;;;;4915773;29;20456;-66
2021/08/05 13:25:43;;;;;;;1.38;1.25;;;;;;;;;;4916031;29;20573;-66
2021/08/05 13:28:37;;;;;;;3.28;1.92;;;;;;;;;;4913515;29;20040;-67
2021/08/05 13:31:23;;;;;;;1.50;1.40;;;;;;;;;;4915806;29;20048;-67
2021/08/05 13:34:11;;;;;;;1.48;1.35;;;;;;;;;;4916319;29;20133;-67
2021/08/05 13:36:56;;;;;;;1.83;1.30;;;;;;;;;;4916555;29;20040;-66
2021/08/05 13:39:46;;;;;;;1.17;1.08;;;;;;;;;;4915557;29;20044;-66
2021/08/05 13:42:31;;;;;;;1.67;1.15;;;;;;;;;;4916487;29;20059;-66
2021/08/05 13:45:17;;;;;;;3.30;1.67;;;;;;;;;;4916156;29;20060;-67
2021/08/05 13:48:02;;;;;;;1.60;1.48;;;;;;;;;;4916183;29;20058;-67
2021/08/05 13:50:48;;;;;;;1.58;1.30;;;;;;;;;;4915538;29;20048;-67
2021/08/05 13:53:33;;;;;;;0.80;0.77;;;;;;;;;;4924843;29;20055;-67
2021/08/05 13:56:19;;;;;;;1.85;0.80;;;;;;;;;;4921853;29;20420;-67
2021/08/05 13:59:04;;;;;;;3.05;1.00;;;;;;;;;;4923128;29;20094;-67
2021/08/05 14:01:49;;;;;;;2.58;1.30;;;;;;;;;;4921823;29;20050;-67
2021/08/05 14:04:35;;;;;;;1.65;1.10;;;;;;;;;;4925680;29;20171;-67
2021/08/05 14:07:20;;;;;;;1.70;1.20;;;;;;;;;;4922533;29;20051;-64
2021/08/05 14:10:06;;;;;;;1.52;1.42;;;;;;;;;;4921314;29;20043;-64
2021/08/05 14:12:52;;;;;;;2.45;1.33;;;;;;;;;;4947997;23;20499;-65
2021/08/05 14:15:36;;;;;;;1.27;1.17;;;;;;;;;;4934808;29;20043;-65
2021/08/05 14:18:22;;;;;;;1.67;1.17;;;;;;;;;;4934951;29;20375;-66
2021/08/05 14:21:09;;;;;;;1.42;0.93;;;;;;;;;;4933610;29;20043;-65
2021/08/05 14:23:54;;;;;;;1.15;0.93;;;;;;;;;;4934644;29;20063;-66
2021/08/05 14:26:39;;;;;;;1.55;1.40;;;;;;;;;;4934976;29;20559;-65
2021/08/05 14:29:25;;;;;;;2.55;1.30;;;;;;;;;;4934727;29;20138;-65
2021/08/05 14:32:11;;;;;;;2.45;1.35;;;;;;;;;;4933250;29;20055;-65
2021/08/05 14:34:56;;;;;;;1.60;1.50;;;;;;;;;;4934045;29;20134;-65
2021/08/05 14:37:42;;;;;;;1.55;1.45;;;;;;;;;;4934588;29;20059;-65
2021/08/05 14:40:27;;;;;;;3.90;1.30;;;;;;;;;;4934680;29;20059;-65
2021/08/05 14:43:13;;;;;;;1.90;1.70;;;;;;;;;;4933278;29;20062;-65
2021/08/05 14:45:58;;;;;;;2.65;1.27;;;;;;;;;;4934274;29;20127;-65
2021/08/05 14:48:43;;;;;;;1.50;1.40;;;;;;;;;;4934495;29;20063;-66
2021/08/05 14:51:29;;;;;;;2.42;1.75;;;;;;;;;;4934550;29;20070;-66
2021/08/05 14:54:15;;;;;;;2.58;1.70;;;;;;;;;;4934206;29;20113;-66
2021/08/05 14:57:00;;;;;;;2.75;1.55;;;;;;;;;;4943099;29;20050;-65
2021/08/05 14:59:45;;;;;;;1.70;1.60;;;;;;;;;;4942566;29;20443;-66
2021/08/05 15:02:31;;;;;;;1.25;1.15;;;;;;;;;;4941854;28;20508;-67
2021/08/05 15:05:16;;;;;;;1.50;1.33;;;;;;;;;;4942340;29;20135;-66
2021/08/05 15:08:02;;;;;;;1.73;1.38;;;;;;;;;;4953634;28;20515;-66
2021/08/05 15:10:47;;;;;;;2.53;1.30;;;;;;;;;;4947305;28;20428;-66
2021/08/05 15:13:32;;;;;;;1.40;1.20;;;;;;;;;;4935422;29;20075;-66
2021/08/05 15:16:18;;;;;;;2.30;1.70;;;;;;;;;;4938188;29;20044;-66
2021/08/05 15:19:03;;;;;;;3.35;1.30;;;;;;;;;;4937200;29;20233;-67
2021/08/05 15:21:48;;;;;;;1.20;1.10;;;;;;;;;;4936928;29;20044;-66
2021/08/05 15:24:33;;;;;;;1.20;1.10;;;;;;;;;;4937479;29;20048;-66
2021/08/05 15:27:19;;;;;;;1.35;1.17;;;;;;;;;;4938061;29;20122;-66
2021/08/05 15:30:04;;;;;;;1.45;1.35;;;;;;;;;;4938187;29;20094;-66
2021/08/05 15:32:50;;;;;;;1.55;1.40;;;;;;;;;;4936986;29;20416;-66
2021/08/05 15:35:35;;;;;;;3.03;2.15;;;;;;;;;;4937862;29;20179;-66
2021/08/05 15:38:20;;;;;;;2.30;1.50;;;;;;;;;;4937003;29;20054;-66
2021/08/05 15:41:05;;;;;;;2.65;1.83;;;;;;;;;;4937799;29;20043;-67
2021/08/05 15:43:51;;;;;;;1.60;1.50;;;;;;;;;;4937070;29;20042;-66
2021/08/05 15:46:37;;;;;;;1.55;1.45;;;;;;;;;;4937906;29;20519;-66
2021/08/05 15:49:22;;;;;;;1.92;1.45;;;;;;;;;;4937871;29;20040;-66
2021/08/05 15:52:07;;;;;;;2.70;1.70;;;;;;;;;;4936886;29;20880;-66
2021/08/05 15:54:52;;;;;;;1.83;1.60;;;;;;;;;;4936814;29;20050;-66
2021/08/05 15:57:38;;;;;;;1.58;1.48;;;;;;;;;;4937823;29;20070;-65
2021/08/05 16:00:23;;;;;;;2.45;1.83;;;;;;;;;;4937875;29;20043;-65
2021/08/05 16:03:09;;;;;;;1.83;1.70;;;;;;;;;;4936460;29;20047;-65
2021/08/05 16:05:54;;;;;;;2.53;1.63;;;;;;;;;;4936516;29;20039;-66
2021/08/05 16:08:40;;;;;;;1.75;1.60;;;;;;;;;;4937546;29;20491;-66
2021/08/05 16:11:25;;;;;;;4.65;1.80;;;;;;;;;;4937459;29;20040;-66
2021/08/05 16:14:11;;;;;;;4.25;2.08;;;;;;;;;;4935731;29;20051;-65
2021/08/05 16:16:56;;;;;;;1.73;1.63;;;;;;;;;;4937083;29;20054;-66
2021/08/05 16:19:42;;;;;;;2.38;2.15;;;;;;;;;;4937428;29;20414;-66
2021/08/05 16:22:27;;;;;;;2.05;1.95;;;;;;;;;;4937285;29;20048;-66
2021/08/05 16:25:13;;;;;;;3.35;2.50;;;;;;;;;;4934861;29;20050;-66
2021/08/05 16:27:58;;;;;;;2.60;2.40;;;;;;;;;;4936182;29;20103;-65
2021/08/05 16:30:43;;;;;;;1.73;1.42;;;;;;;;;;4937193;29;20515;-66
2021/08/05 16:33:29;;;;;;;2.22;2.08;;;;;;;;;;4935787;29;20127;-65